sensor_id;sensor_type;location;lat;lon;timestamp;pressure;altitude;pressure_sealevel;temperature;humidity
13209;BME280;6669;42.678;23.332;2023-05-24T00:01:23;94362.56;;;13.64;100.00
13209;BME280;6669;42.678;23.332;2023-05-24T00:03:52;94363.38;;;13.57;100.00
13209;BME280;6669;42.678;23.332;2023-05-24T00:06:25;94362.72;;;13.49;100.00
13209;BME280;6669;42.678;23.332;2023-05-24T00:08:53;94361.31;;;13.39;100.00
13209;BME280;6669;42.678;23.332;2023-05-24T00:11:23;94362.44;;;13.30;100.00
13209;BME280;6669;42.678;23.332;2023-05-24T00:13:51;94358.81;;;13.24;100.00
13209;BME280;6669;42.678;23.332;2023-05-24T00:16:19;94357.59;;;13.20;100.00
13209;BME280;6669;42.678;23.332;2023-05-24T00:18:47;94349.50;;;13.08;100.00
13209;BME280;6669;42.678;23.332;2023-05-24T00:21:15;94358.34;;;13.07;100.00
13209;BME280;6669;42.678;23.332;2023-05-24T00:23:43;94345.44;;;12.99;100.00
13209;BME280;6669;42.678;23.332;2023-05-24T00:26:11;94345.03;;;12.96;100.00
13209;BME280;6669;42.678;23.332;2023-05-24T00:28:40;94346.25;;;12.93;100.00
13209;BME280;6669;42.678;23.332;2023-05-24T00:31:08;94347.00;;;12.87;100.00
13209;BME280;6669;42.678;23.332;2023-05-24T00:33:36;94346.56;;;12.83;100.00
13209;BME280;6669;42.678;23.332;2023-05-24T00:36:04;94341.50;;;12.75;100.00
13209;BME280;6669;42.678;23.332;2023-05-24T00:38:32;94343.31;;;12.74;100.00
13209;BME280;6669;42.678;23.332;2023-05-24T00:41:00;94336.81;;;12.64;100.00
13209;BME280;6669;42.678;23.332;2023-05-24T00:43:28;94344.63;;;12.64;100.00
13209;BME280;6669;42.678;23.332;2023-05-24T00:46:17;94342.44;;;12.61;100.00
13209;BME280;6669;42.678;23.332;2023-05-24T00:48:45;94341.81;;;12.58;100.00
13209;BME280;6669;42.678;23.332;2023-05-24T00:51:15;94336.19;;;12.55;100.00
13209;BME280;6669;42.678;23.332;2023-05-24T00:53:44;94334.47;;;12.40;100.00
13209;BME280;6669;42.678;23.332;2023-05-24T00:56:13;94339.91;;;12.46;100.00
13209;BME280;6669;42.678;23.332;2023-05-24T00:58:42;94343.28;;;12.39;100.00
13209;BME280;6669;42.678;23.332;2023-05-24T01:01:12;94344.97;;;12.25;100.00
13209;BME280;6669;42.678;23.332;2023-05-24T01:03:40;94336.59;;;12.30;100.00
13209;BME280;6669;42.678;23.332;2023-05-24T01:06:09;94336.56;;;12.23;100.00
13209;BME280;6669;42.678;23.332;2023-05-24T01:09:03;94324.47;;;12.16;100.00
13209;BME280;6669;42.678;23.332;2023-05-24T01:11:42;94336.44;;;12.10;100.00
13209;BME280;6669;42.678;23.332;2023-05-24T01:14:17;94334.66;;;12.10;100.00
13209;BME280;6669;42.678;23.332;2023-05-24T01:16:51;94338.50;;;12.15;100.00
13209;BME280;6669;42.678;23.332;2023-05-24T01:19:47;94341.63;;;12.03;100.00
13209;BME280;6669;42.678;23.332;2023-05-24T01:22:50;94349.44;;;12.03;100.00
13209;BME280;6669;42.678;23.332;2023-05-24T01:25:37;94341.66;;;12.10;100.00
13209;BME280;6669;42.678;23.332;2023-05-24T01:28:10;94353.13;;;11.94;100.00
13209;BME280;6669;42.678;23.332;2023-05-24T01:30:39;94353.28;;;11.92;100.00
13209;BME280;6669;42.678;23.332;2023-05-24T01:33:08;94352.50;;;11.92;100.00
13209;BME280;6669;42.678;23.332;2023-05-24T01:35:36;94354.88;;;11.87;100.00
13209;BME280;6669;42.678;23.332;2023-05-24T01:38:06;94351.38;;;11.80;100.00
13209;BME280;6669;42.678;23.332;2023-05-24T01:40:36;94353.81;;;11.81;100.00
13209;BME280;6669;42.678;23.332;2023-05-24T01:43:13;94345.63;;;11.84;100.00
13209;BME280;6669;42.678;23.332;2023-05-24T01:45:48;94347.78;;;11.81;100.00
13209;BME280;6669;42.678;23.332;2023-05-24T01:48:29;94344.19;;;11.82;100.00
13209;BME280;6669;42.678;23.332;2023-05-24T01:50:59;94343.75;;;11.78;100.00
13209;BME280;6669;42.678;23.332;2023-05-24T01:53:31;94339.28;;;11.72;100.00
13209;BME280;6669;42.678;23.332;2023-05-24T01:56:02;94342.63;;;11.66;100.00
13209;BME280;6669;42.678;23.332;2023-05-24T01:58:33;94340.84;;;11.66;100.00
13209;BME280;6669;42.678;23.332;2023-05-24T02:01:03;94342.09;;;11.70;100.00
13209;BME280;6669;42.678;23.332;2023-05-24T02:03:32;94330.00;;;11.84;100.00
13209;BME280;6669;42.678;23.332;2023-05-24T02:06:01;94341.84;;;11.87;100.00
13209;BME280;6669;42.678;23.332;2023-05-24T02:08:29;94340.00;;;12.02;100.00
13209;BME280;6669;42.678;23.332;2023-05-24T02:10:57;94338.75;;;11.98;100.00
13209;BME280;6669;42.678;23.332;2023-05-24T02:13:24;94335.78;;;12.01;100.00
13209;BME280;6669;42.678;23.332;2023-05-24T02:15:54;94334.78;;;12.02;100.00
13209;BME280;6669;42.678;23.332;2023-05-24T02:18:22;94335.53;;;11.96;100.00
13209;BME280;6669;42.678;23.332;2023-05-24T02:20:50;94332.75;;;11.76;100.00
13209;BME280;6669;42.678;23.332;2023-05-24T02:23:18;94314.44;;;11.69;100.00
13209;BME280;6669;42.678;23.332;2023-05-24T02:25:46;94329.31;;;11.75;100.00
13209;BME280;6669;42.678;23.332;2023-05-24T02:28:14;94326.47;;;11.70;100.00
13209;BME280;6669;42.678;23.332;2023-05-24T02:30:42;94326.28;;;11.72;100.00
13209;BME280;6669;42.678;23.332;2023-05-24T02:33:12;94329.25;;;11.69;100.00
13209;BME280;6669;42.678;23.332;2023-05-24T02:35:40;94324.25;;;11.67;100.00
13209;BME280;6669;42.678;23.332;2023-05-24T02:38:08;94322.97;;;11.63;100.00
13209;BME280;6669;42.678;23.332;2023-05-24T02:40:36;94331.22;;;11.67;100.00
13209;BME280;6669;42.678;23.332;2023-05-24T02:43:04;94322.38;;;11.61;100.00
13209;BME280;6669;42.678;23.332;2023-05-24T02:45:32;94327.94;;;11.58;100.00
13209;BME280;6669;42.678;23.332;2023-05-24T02:48:00;94330.19;;;11.61;100.00
13209;BME280;6669;42.678;23.332;2023-05-24T02:50:30;94328.63;;;11.67;100.00
13209;BME280;6669;42.678;23.332;2023-05-24T02:52:58;94326.03;;;11.67;100.00
13209;BME280;6669;42.678;23.332;2023-05-24T02:55:26;94332.06;;;11.67;100.00
13209;BME280;6669;42.678;23.332;2023-05-24T02:57:54;94337.13;;;11.54;100.00
13209;BME280;6669;42.678;23.332;2023-05-24T03:00:23;94331.84;;;11.47;100.00
13209;BME280;6669;42.678;23.332;2023-05-24T03:02:50;94329.59;;;11.44;100.00
13209;BME280;6669;42.678;23.332;2023-05-24T03:05:19;94333.47;;;11.48;100.00
13209;BME280;6669;42.678;23.332;2023-05-24T03:07:48;94336.13;;;11.55;100.00
13209;BME280;6669;42.678;23.332;2023-05-24T03:10:16;94338.34;;;11.58;100.00
13209;BME280;6669;42.678;23.332;2023-05-24T03:12:44;94345.81;;;11.61;100.00
13209;BME280;6669;42.678;23.332;2023-05-24T03:15:12;94349.16;;;11.55;100.00
13209;BME280;6669;42.678;23.332;2023-05-24T03:17:40;94352.72;;;11.54;100.00
13209;BME280;6669;42.678;23.332;2023-05-24T03:20:09;94351.13;;;11.53;100.00
13209;BME280;6669;42.678;23.332;2023-05-24T03:22:37;94307.03;;;11.29;100.00
13209;BME280;6669;42.678;23.332;2023-05-24T03:25:07;94354.78;;;11.58;100.00
13209;BME280;6669;42.678;23.332;2023-05-24T03:27:35;94352.47;;;11.49;100.00
13209;BME280;6669;42.678;23.332;2023-05-24T03:30:04;94359.75;;;11.53;100.00
13209;BME280;6669;42.678;23.332;2023-05-24T03:32:32;94360.34;;;11.55;100.00
13209;BME280;6669;42.678;23.332;2023-05-24T03:35:00;94355.25;;;11.62;100.00
13209;BME280;6669;42.678;23.332;2023-05-24T03:37:28;94366.88;;;11.66;100.00
13209;BME280;6669;42.678;23.332;2023-05-24T03:39:56;94364.72;;;11.70;100.00
13209;BME280;6669;42.678;23.332;2023-05-24T03:42:25;94362.38;;;11.75;100.00
13209;BME280;6669;42.678;23.332;2023-05-24T03:44:53;94362.19;;;11.76;100.00
13209;BME280;6669;42.678;23.332;2023-05-24T03:47:21;94368.69;;;11.87;100.00
13209;BME280;6669;42.678;23.332;2023-05-24T03:49:49;94359.44;;;11.85;100.00
13209;BME280;6669;42.678;23.332;2023-05-24T03:52:17;94361.19;;;11.77;100.00
13209;BME280;6669;42.678;23.332;2023-05-24T03:54:45;94361.38;;;11.76;100.00
13209;BME280;6669;42.678;23.332;2023-05-24T03:57:14;94364.84;;;11.83;100.00
13209;BME280;6669;42.678;23.332;2023-05-24T03:59:44;94354.31;;;11.70;100.00
13209;BME280;6669;42.678;23.332;2023-05-24T04:02:12;94361.50;;;11.89;100.00
13209;BME280;6669;42.678;23.332;2023-05-24T04:04:40;94368.75;;;11.94;100.00
13209;BME280;6669;42.678;23.332;2023-05-24T04:07:08;94363.72;;;11.92;100.00
13209;BME280;6669;42.678;23.332;2023-05-24T04:09:37;94377.44;;;12.01;100.00
13209;BME280;6669;42.678;23.332;2023-05-24T04:12:05;94376.84;;;11.99;100.00
13209;BME280;6669;42.678;23.332;2023-05-24T04:14:33;94369.28;;;12.04;100.00
13209;BME280;6669;42.678;23.332;2023-05-24T04:17:03;94374.97;;;12.15;100.00
13209;BME280;6669;42.678;23.332;2023-05-24T04:19:33;94380.44;;;12.20;100.00
13209;BME280;6669;42.678;23.332;2023-05-24T04:22:01;94379.06;;;12.24;100.00
13209;BME280;6669;42.678;23.332;2023-05-24T04:24:29;94376.88;;;12.27;100.00
13209;BME280;6669;42.678;23.332;2023-05-24T04:26:57;94386.13;;;12.30;100.00
13209;BME280;6669;42.678;23.332;2023-05-24T04:29:25;94373.53;;;12.34;100.00
13209;BME280;6669;42.678;23.332;2023-05-24T04:31:53;94377.41;;;12.45;100.00
13209;BME280;6669;42.678;23.332;2023-05-24T04:34:23;94376.38;;;12.39;100.00
13209;BME280;6669;42.678;23.332;2023-05-24T04:36:51;94379.25;;;12.51;100.00
13209;BME280;6669;42.678;23.332;2023-05-24T04:39:19;94389.19;;;12.69;100.00
13209;BME280;6669;42.678;23.332;2023-05-24T04:41:47;94387.56;;;12.61;100.00
13209;BME280;6669;42.678;23.332;2023-05-24T04:44:16;94398.44;;;12.71;100.00
13209;BME280;6669;42.678;23.332;2023-05-24T04:46:44;94395.09;;;12.78;100.00
13209;BME280;6669;42.678;23.332;2023-05-24T04:49:12;94396.50;;;12.80;100.00
13209;BME280;6669;42.678;23.332;2023-05-24T04:51:42;94403.78;;;12.91;100.00
13209;BME280;6669;42.678;23.332;2023-05-24T04:54:10;94406.03;;;12.95;100.00
13209;BME280;6669;42.678;23.332;2023-05-24T04:56:38;94404.91;;;13.11;100.00
13209;BME280;6669;42.678;23.332;2023-05-24T04:59:06;94400.13;;;13.21;100.00
13209;BME280;6669;42.678;23.332;2023-05-24T05:01:35;94407.81;;;13.29;100.00
13209;BME280;6669;42.678;23.332;2023-05-24T05:04:03;94411.31;;;13.43;100.00
13209;BME280;6669;42.678;23.332;2023-05-24T05:06:31;94408.38;;;13.53;100.00
13209;BME280;6669;42.678;23.332;2023-05-24T05:09:05;94390.09;;;13.53;100.00
13209;BME280;6669;42.678;23.332;2023-05-24T05:11:35;94407.81;;;13.78;100.00
13209;BME280;6669;42.678;23.332;2023-05-24T05:14:03;94410.03;;;13.81;100.00
13209;BME280;6669;42.678;23.332;2023-05-24T05:16:31;94413.88;;;13.92;100.00
13209;BME280;6669;42.678;23.332;2023-05-24T05:19:00;94425.13;;;13.92;100.00
13209;BME280;6669;42.678;23.332;2023-05-24T05:21:30;94420.75;;;14.06;100.00
13209;BME280;6669;42.678;23.332;2023-05-24T05:23:59;94408.09;;;14.03;100.00
13209;BME280;6669;42.678;23.332;2023-05-24T05:26:29;94418.13;;;14.06;100.00
13209;BME280;6669;42.678;23.332;2023-05-24T05:28:57;94423.38;;;14.13;100.00
13209;BME280;6669;42.678;23.332;2023-05-24T05:31:25;94417.34;;;14.19;100.00
13209;BME280;6669;42.678;23.332;2023-05-24T05:33:53;94420.56;;;14.21;100.00
13209;BME280;6669;42.678;23.332;2023-05-24T05:36:21;94424.00;;;14.28;100.00
13209;BME280;6669;42.678;23.332;2023-05-24T05:38:49;94411.53;;;14.30;100.00
13209;BME280;6669;42.678;23.332;2023-05-24T05:41:17;94420.41;;;14.36;100.00
13209;BME280;6669;42.678;23.332;2023-05-24T05:43:47;94412.97;;;14.39;100.00
13209;BME280;6669;42.678;23.332;2023-05-24T05:46:14;94418.97;;;14.47;100.00
13209;BME280;6669;42.678;23.332;2023-05-24T05:48:43;94421.84;;;14.65;100.00
13209;BME280;6669;42.678;23.332;2023-05-24T05:51:12;94415.59;;;14.73;100.00
13209;BME280;6669;42.678;23.332;2023-05-24T05:53:40;94413.16;;;14.85;100.00
13209;BME280;6669;42.678;23.332;2023-05-24T05:56:08;94418.78;;;14.88;100.00
13209;BME280;6669;42.678;23.332;2023-05-24T05:58:36;94427.03;;;14.99;100.00
13209;BME280;6669;42.678;23.332;2023-05-24T06:01:05;94425.81;;;15.08;100.00
13209;BME280;6669;42.678;23.332;2023-05-24T06:03:33;94428.81;;;15.18;100.00
13209;BME280;6669;42.678;23.332;2023-05-24T06:06:02;94429.59;;;15.26;100.00
13209;BME280;6669;42.678;23.332;2023-05-24T06:08:30;94431.16;;;15.40;100.00
13209;BME280;6669;42.678;23.332;2023-05-24T06:11:00;94437.56;;;15.51;100.00
13209;BME280;6669;42.678;23.332;2023-05-24T06:13:29;94436.53;;;15.59;100.00
13209;BME280;6669;42.678;23.332;2023-05-24T06:15:58;94433.13;;;15.58;100.00
13209;BME280;6669;42.678;23.332;2023-05-24T06:18:28;94444.38;;;15.65;100.00
13209;BME280;6669;42.678;23.332;2023-05-24T06:20:58;94435.66;;;15.78;100.00
13209;BME280;6669;42.678;23.332;2023-05-24T06:23:26;94433.03;;;15.85;100.00
13209;BME280;6669;42.678;23.332;2023-05-24T06:25:54;94446.69;;;15.94;100.00
13209;BME280;6669;42.678;23.332;2023-05-24T06:28:22;94435.94;;;16.09;100.00
13209;BME280;6669;42.678;23.332;2023-05-24T06:30:50;94443.53;;;16.17;100.00
13209;BME280;6669;42.678;23.332;2023-05-24T06:33:18;94442.28;;;16.26;100.00
13209;BME280;6669;42.678;23.332;2023-05-24T06:35:47;94447.44;;;16.40;100.00
13209;BME280;6669;42.678;23.332;2023-05-24T06:38:15;94447.81;;;16.43;100.00
13209;BME280;6669;42.678;23.332;2023-05-24T06:40:44;94442.59;;;16.43;100.00
13209;BME280;6669;42.678;23.332;2023-05-24T06:43:12;94437.28;;;16.50;100.00
13209;BME280;6669;42.678;23.332;2023-05-24T06:45:41;94437.66;;;16.54;100.00
13209;BME280;6669;42.678;23.332;2023-05-24T06:48:09;94429.19;;;16.51;100.00
13209;BME280;6669;42.678;23.332;2023-05-24T06:50:37;94437.00;;;16.58;100.00
13209;BME280;6669;42.678;23.332;2023-05-24T06:53:09;94429.56;;;16.55;100.00
13209;BME280;6669;42.678;23.332;2023-05-24T06:55:37;94434.44;;;16.77;100.00
13209;BME280;6669;42.678;23.332;2023-05-24T06:58:05;94413.59;;;16.82;100.00
13209;BME280;6669;42.678;23.332;2023-05-24T07:00:33;94431.59;;;17.04;100.00
13209;BME280;6669;42.678;23.332;2023-05-24T07:03:01;94426.25;;;17.17;100.00
13209;BME280;6669;42.678;23.332;2023-05-24T07:05:30;94430.97;;;17.27;100.00
13209;BME280;6669;42.678;23.332;2023-05-24T07:07:58;94429.31;;;17.32;100.00
13209;BME280;6669;42.678;23.332;2023-05-24T07:10:27;94432.38;;;17.48;100.00
13209;BME280;6669;42.678;23.332;2023-05-24T07:12:55;94433.09;;;17.55;100.00
13209;BME280;6669;42.678;23.332;2023-05-24T07:15:23;94436.59;;;17.68;100.00
13209;BME280;6669;42.678;23.332;2023-05-24T07:17:51;94436.44;;;17.81;100.00
13209;BME280;6669;42.678;23.332;2023-05-24T07:20:20;94435.19;;;17.84;100.00
13209;BME280;6669;42.678;23.332;2023-05-24T07:22:48;94434.00;;;17.98;100.00
13209;BME280;6669;42.678;23.332;2023-05-24T07:25:17;94438.53;;;18.09;100.00
13209;BME280;6669;42.678;23.332;2023-05-24T07:27:47;94435.59;;;18.18;100.00
13209;BME280;6669;42.678;23.332;2023-05-24T07:30:15;94441.78;;;18.23;100.00
13209;BME280;6669;42.678;23.332;2023-05-24T07:32:57;94442.16;;;18.39;100.00
13209;BME280;6669;42.678;23.332;2023-05-24T07:35:26;94443.88;;;18.45;100.00
13209;BME280;6669;42.678;23.332;2023-05-24T07:37:55;94441.50;;;18.55;100.00
13209;BME280;6669;42.678;23.332;2023-05-24T07:40:23;94429.28;;;18.61;100.00
13209;BME280;6669;42.678;23.332;2023-05-24T07:42:52;94439.03;;;18.72;100.00
13209;BME280;6669;42.678;23.332;2023-05-24T07:45:20;94440.84;;;18.72;100.00
13209;BME280;6669;42.678;23.332;2023-05-24T07:47:48;94429.66;;;18.76;100.00
13209;BME280;6669;42.678;23.332;2023-05-24T07:50:17;94443.63;;;18.89;100.00
13209;BME280;6669;42.678;23.332;2023-05-24T07:52:45;94424.75;;;18.92;100.00
13209;BME280;6669;42.678;23.332;2023-05-24T07:55:14;94433.34;;;19.11;100.00
13209;BME280;6669;42.678;23.332;2023-05-24T07:57:42;94427.25;;;19.22;100.00
13209;BME280;6669;42.678;23.332;2023-05-24T08:00:12;94417.88;;;19.26;100.00
13209;BME280;6669;42.678;23.332;2023-05-24T08:02:42;94428.13;;;19.52;100.00
13209;BME280;6669;42.678;23.332;2023-05-24T08:05:12;94426.28;;;19.64;100.00
13209;BME280;6669;42.678;23.332;2023-05-24T08:07:40;94423.75;;;19.69;100.00
13209;BME280;6669;42.678;23.332;2023-05-24T08:10:09;94405.00;;;19.54;100.00
13209;BME280;6669;42.678;23.332;2023-05-24T08:12:38;94424.16;;;19.90;100.00
13209;BME280;6669;42.678;23.332;2023-05-24T08:15:07;94425.19;;;20.01;100.00
13209;BME280;6669;42.678;23.332;2023-05-24T08:17:37;94425.91;;;20.13;100.00
13209;BME280;6669;42.678;23.332;2023-05-24T08:20:06;94424.25;;;20.24;100.00
13209;BME280;6669;42.678;23.332;2023-05-24T08:22:35;94403.59;;;20.21;100.00
13209;BME280;6669;42.678;23.332;2023-05-24T08:25:04;94417.09;;;20.53;100.00
13209;BME280;6669;42.678;23.332;2023-05-24T08:27:33;94416.16;;;20.60;88.80
13209;BME280;6669;42.678;23.332;2023-05-24T08:30:00;94401.41;;;20.64;86.27
13209;BME280;6669;42.678;23.332;2023-05-24T08:32:29;94423.84;;;20.78;89.74
13209;BME280;6669;42.678;23.332;2023-05-24T08:34:59;94412.66;;;20.71;85.67
13209;BME280;6669;42.678;23.332;2023-05-24T08:37:46;94421.69;;;20.92;89.52
13209;BME280;6669;42.678;23.332;2023-05-24T08:40:15;94410.97;;;20.99;91.61
13209;BME280;6669;42.678;23.332;2023-05-24T08:42:45;94416.09;;;21.28;94.86
13209;BME280;6669;42.678;23.332;2023-05-24T08:45:15;94424.38;;;21.53;90.19
13209;BME280;6669;42.678;23.332;2023-05-24T08:47:45;94416.06;;;21.45;81.28
13209;BME280;6669;42.678;23.332;2023-05-24T08:50:15;94408.50;;;21.53;80.58
13209;BME280;6669;42.678;23.332;2023-05-24T08:52:44;94418.22;;;21.70;82.44
13209;BME280;6669;42.678;23.332;2023-05-24T08:55:13;94415.84;;;21.91;80.20
13209;BME280;6669;42.678;23.332;2023-05-24T08:57:43;94416.44;;;21.98;83.72
13209;BME280;6669;42.678;23.332;2023-05-24T09:00:13;94400.88;;;22.01;80.13
13209;BME280;6669;42.678;23.332;2023-05-24T09:02:42;94412.78;;;22.04;75.16
13209;BME280;6669;42.678;23.332;2023-05-24T09:05:11;94411.19;;;22.03;74.35
13209;BME280;6669;42.678;23.332;2023-05-24T09:07:44;94399.47;;;21.94;73.42
13209;BME280;6669;42.678;23.332;2023-05-24T09:10:13;94416.84;;;22.12;76.85
13209;BME280;6669;42.678;23.332;2023-05-24T09:12:44;94410.91;;;22.27;72.12
13209;BME280;6669;42.678;23.332;2023-05-24T09:15:12;94404.34;;;22.34;71.12
13209;BME280;6669;42.678;23.332;2023-05-24T09:17:41;94405.03;;;22.47;67.88
13209;BME280;6669;42.678;23.332;2023-05-24T09:20:10;94414.22;;;22.72;67.70
13209;BME280;6669;42.678;23.332;2023-05-24T09:22:40;94408.69;;;22.73;66.57
13209;BME280;6669;42.678;23.332;2023-05-24T09:25:13;94404.56;;;22.88;69.60
13209;BME280;6669;42.678;23.332;2023-05-24T09:27:42;94410.19;;;22.96;65.57
13209;BME280;6669;42.678;23.332;2023-05-24T09:30:14;94397.47;;;23.03;68.49
13209;BME280;6669;42.678;23.332;2023-05-24T09:32:53;94404.25;;;22.84;61.80
13209;BME280;6669;42.678;23.332;2023-05-24T09:35:23;94399.88;;;23.00;63.67
13209;BME280;6669;42.678;23.332;2023-05-24T09:37:55;94398.59;;;23.08;65.43
13209;BME280;6669;42.678;23.332;2023-05-24T09:40:27;94389.81;;;23.07;68.69
13209;BME280;6669;42.678;23.332;2023-05-24T09:43:03;94379.34;;;23.28;61.75
13209;BME280;6669;42.678;23.332;2023-05-24T09:45:31;94384.41;;;23.24;63.88
13209;BME280;6669;42.678;23.332;2023-05-24T09:48:02;94397.72;;;23.40;61.64
13209;BME280;6669;42.678;23.332;2023-05-24T09:50:30;94393.28;;;23.56;61.39
13209;BME280;6669;42.678;23.332;2023-05-24T09:52:59;94388.25;;;23.54;58.98
13209;BME280;6669;42.678;23.332;2023-05-24T09:55:34;94398.16;;;23.79;58.29
13209;BME280;6669;42.678;23.332;2023-05-24T09:58:04;94401.41;;;23.92;60.73
13209;BME280;6669;42.678;23.332;2023-05-24T10:00:35;94393.59;;;23.64;54.89
13209;BME280;6669;42.678;23.332;2023-05-24T10:03:07;94378.56;;;23.91;56.33
13209;BME280;6669;42.678;23.332;2023-05-24T10:05:40;94384.44;;;23.98;56.94
13209;BME280;6669;42.678;23.332;2023-05-24T10:08:08;94388.09;;;23.87;55.98
13209;BME280;6669;42.678;23.332;2023-05-24T10:10:39;94390.19;;;23.74;57.00
13209;BME280;6669;42.678;23.332;2023-05-24T10:13:09;94389.41;;;23.84;58.09
13209;BME280;6669;42.678;23.332;2023-05-24T10:15:37;94359.41;;;23.83;59.75
13209;BME280;6669;42.678;23.332;2023-05-24T10:18:05;94378.50;;;23.75;57.16
13209;BME280;6669;42.678;23.332;2023-05-24T10:20:39;94367.41;;;23.94;59.14
13209;BME280;6669;42.678;23.332;2023-05-24T10:23:08;94370.66;;;24.06;58.66
13209;BME280;6669;42.678;23.332;2023-05-24T10:25:41;94368.53;;;23.98;57.13
13209;BME280;6669;42.678;23.332;2023-05-24T10:28:12;94372.22;;;23.97;56.03
13209;BME280;6669;42.678;23.332;2023-05-24T10:30:48;94364.28;;;24.02;56.56
13209;BME280;6669;42.678;23.332;2023-05-24T10:33:20;94361.06;;;24.05;55.30
13209;BME280;6669;42.678;23.332;2023-05-24T10:35:50;94367.44;;;24.04;56.57
13209;BME280;6669;42.678;23.332;2023-05-24T10:38:21;94371.75;;;24.31;56.39
13209;BME280;6669;42.678;23.332;2023-05-24T10:41:01;94355.28;;;24.44;54.51
13209;BME280;6669;42.678;23.332;2023-05-24T10:43:34;94354.72;;;24.27;53.32
13209;BME280;6669;42.678;23.332;2023-05-24T10:46:08;94345.72;;;24.38;53.46
13209;BME280;6669;42.678;23.332;2023-05-24T10:48:38;94354.75;;;24.78;54.42
13209;BME280;6669;42.678;23.332;2023-05-24T10:51:34;94340.31;;;25.16;55.21
13209;BME280;6669;42.678;23.332;2023-05-24T10:54:15;94349.50;;;25.65;54.39
13209;BME280;6669;42.678;23.332;2023-05-24T10:56:47;94334.84;;;25.62;53.32
13209;BME280;6669;42.678;23.332;2023-05-24T10:59:26;94328.06;;;25.90;53.15
13209;BME280;6669;42.678;23.332;2023-05-24T11:01:56;94337.94;;;26.30;52.55
13209;BME280;6669;42.678;23.332;2023-05-24T11:04:25;94336.34;;;26.63;51.69
13209;BME280;6669;42.678;23.332;2023-05-24T11:07:00;94333.75;;;26.87;51.54
13209;BME280;6669;42.678;23.332;2023-05-24T11:09:28;94338.00;;;27.37;50.73
13209;BME280;6669;42.678;23.332;2023-05-24T11:12:01;94336.75;;;27.97;52.65
13209;BME280;6669;42.678;23.332;2023-05-24T11:14:35;94338.53;;;28.59;50.63
13209;BME280;6669;42.678;23.332;2023-05-24T11:17:05;94337.63;;;28.96;48.26
13209;BME280;6669;42.678;23.332;2023-05-24T11:19:35;94337.56;;;29.29;48.26
13209;BME280;6669;42.678;23.332;2023-05-24T11:22:06;94337.88;;;29.42;49.08
13209;BME280;6669;42.678;23.332;2023-05-24T11:24:34;94332.00;;;29.67;48.92
13209;BME280;6669;42.678;23.332;2023-05-24T11:27:06;94342.19;;;29.65;47.64
13209;BME280;6669;42.678;23.332;2023-05-24T11:29:39;94342.91;;;29.71;47.01
13209;BME280;6669;42.678;23.332;2023-05-24T11:32:08;94317.28;;;29.93;45.99
13209;BME280;6669;42.678;23.332;2023-05-24T11:34:36;94331.84;;;30.00;45.57
13209;BME280;6669;42.678;23.332;2023-05-24T11:37:05;94321.09;;;29.64;45.46
13209;BME280;6669;42.678;23.332;2023-05-24T11:39:35;94322.75;;;29.74;46.95
13209;BME280;6669;42.678;23.332;2023-05-24T11:42:07;94320.66;;;29.71;45.98
13209;BME280;6669;42.678;23.332;2023-05-24T11:44:35;94324.91;;;29.85;45.67
13209;BME280;6669;42.678;23.332;2023-05-24T11:47:05;94316.28;;;30.03;47.97
13209;BME280;6669;42.678;23.332;2023-05-24T11:49:34;94311.88;;;30.07;46.21
13209;BME280;6669;42.678;23.332;2023-05-24T11:52:02;94311.94;;;30.52;45.28
13209;BME280;6669;42.678;23.332;2023-05-24T11:54:30;94299.84;;;30.18;45.22
13209;BME280;6669;42.678;23.332;2023-05-24T11:57:00;94303.44;;;30.36;45.51
13209;BME280;6669;42.678;23.332;2023-05-24T11:59:30;94309.16;;;30.21;44.19
13209;BME280;6669;42.678;23.332;2023-05-24T12:01:59;94297.81;;;30.46;44.25
13209;BME280;6669;42.678;23.332;2023-05-24T12:04:29;94307.28;;;30.67;44.99
13209;BME280;6669;42.678;23.332;2023-05-24T12:06:58;94300.09;;;30.08;44.65
13209;BME280;6669;42.678;23.332;2023-05-24T12:09:27;94294.75;;;30.39;45.72
13209;BME280;6669;42.678;23.332;2023-05-24T12:11:55;94297.22;;;30.27;42.53
13209;BME280;6669;42.678;23.332;2023-05-24T12:14:27;94298.00;;;29.54;43.08
13209;BME280;6669;42.678;23.332;2023-05-24T12:16:58;94292.72;;;29.49;44.59
13209;BME280;6669;42.678;23.332;2023-05-24T12:19:29;94285.25;;;29.74;44.96
13209;BME280;6669;42.678;23.332;2023-05-24T12:22:03;94271.13;;;29.96;45.10
13209;BME280;6669;42.678;23.332;2023-05-24T12:24:32;94269.97;;;30.11;45.24
13209;BME280;6669;42.678;23.332;2023-05-24T12:27:02;94270.53;;;30.76;44.91
13209;BME280;6669;42.678;23.332;2023-05-24T12:29:34;94265.34;;;30.25;44.17
13209;BME280;6669;42.678;23.332;2023-05-24T12:32:05;94279.19;;;30.64;44.71
13209;BME280;6669;42.678;23.332;2023-05-24T12:34:40;94269.28;;;30.73;44.32
13209;BME280;6669;42.678;23.332;2023-05-24T12:37:11;94272.34;;;31.29;44.18
13209;BME280;6669;42.678;23.332;2023-05-24T12:39:40;94273.88;;;31.71;44.95
13209;BME280;6669;42.678;23.332;2023-05-24T12:42:10;94266.28;;;31.99;44.33
13209;BME280;6669;42.678;23.332;2023-05-24T12:44:39;94268.81;;;31.69;43.39
13209;BME280;6669;42.678;23.332;2023-05-24T12:47:09;94265.81;;;32.23;42.50
13209;BME280;6669;42.678;23.332;2023-05-24T12:49:37;94258.72;;;32.01;43.04
13209;BME280;6669;42.678;23.332;2023-05-24T12:52:05;94257.72;;;32.15;42.73
13209;BME280;6669;42.678;23.332;2023-05-24T12:54:33;94266.16;;;32.22;42.77
13209;BME280;6669;42.678;23.332;2023-05-24T12:57:01;94254.75;;;31.90;42.50
13209;BME280;6669;42.678;23.332;2023-05-24T12:59:30;94238.63;;;31.63;43.87
13209;BME280;6669;42.678;23.332;2023-05-24T13:01:58;94219.81;;;31.81;43.48
13209;BME280;6669;42.678;23.332;2023-05-24T13:04:27;94250.94;;;32.17;44.68
13209;BME280;6669;42.678;23.332;2023-05-24T13:06:57;94252.69;;;31.87;45.43